Time;durP1;ratioP1;P1;durP2;ratioP2;P2;SDS_P1;SDS_P2;PMS_P1;PMS_P2;Temp;Humidity;BMP_temperature;BMP_pressure;BME280_temperature;BME280_humidity;BME280_pressure;Samples;Min_cycle;Max_cycle;Signal;HPM_P1;HPM_P2
2024/03/07 00:02:29;;;;;;;26.73;18.37;;;;;;;;;;6155312;23;20408;-88
2024/03/07 00:05:01;;;;;;;29.97;20.57;;;;;;;;;;6174140;23;20955;-88
2024/03/07 00:07:50;;;;;;;25.63;18.30;;;;;;;;;;6180692;23;20394;-90
2024/03/07 00:10:31;;;;;;;27.13;17.40;;;;;;;;;;6173696;23;20525;-90
2024/03/07 00:13:32;;;;;;;25.47;18.80;;;;;;;;;;6176003;23;20876;-92
2024/03/07 00:16:27;;;;;;;30.23;18.77;;;;;;;;;;6122924;23;20383;-89
2024/03/07 00:19:06;;;;;;;28.93;19.10;;;;;;;;;;6141507;23;20498;-90
2024/03/07 00:21:59;;;;;;;30.20;19.50;;;;;;;;;;6136568;23;20821;-87
2024/03/07 00:25:06;;;;;;;28.17;18.50;;;;;;;;;;6108995;23;20418;-90
2024/03/07 00:27:52;;;;;;;28.57;20.30;;;;;;;;;;6061501;23;20386;-89
2024/03/07 00:30:29;;;;;;;26.37;18.60;;;;;;;;;;6061423;23;20397;-88
2024/03/07 00:33:32;;;;;;;32.63;18.93;;;;;;;;;;6064064;23;20417;-92
2024/03/07 00:36:21;;;;;;;31.83;19.20;;;;;;;;;;6066593;23;20489;-89
2024/03/07 00:38:56;;;;;;;25.23;18.90;;;;;;;;;;6057621;23;20409;-89
2024/03/07 00:42:14;;;;;;;22.93;15.93;;;;;;;;;;6072387;23;20799;-91
2024/03/07 00:44:46;;;;;;;25.63;17.30;;;;;;;;;;6054869;23;20429;-88
2024/03/07 00:47:38;;;;;;;25.63;17.00;;;;;;;;;;6054469;23;20441;-90
2024/03/07 00:50:16;;;;;;;27.97;19.27;;;;;;;;;;6055680;23;20437;-89
2024/03/07 00:53:03;;;;;;;26.57;17.10;;;;;;;;;;6057502;23;20428;-88
2024/03/07 00:55:50;;;;;;;28.83;18.00;;;;;;;;;;6056855;23;20830;-89
2024/03/07 00:58:37;;;;;;;27.57;16.60;;;;;;;;;;6098969;23;20394;-90
2024/03/07 01:01:28;;;;;;;26.30;16.43;;;;;;;;;;6144630;23;20410;-90
2024/03/07 01:04:33;;;;;;;25.47;16.93;;;;;;;;;;6142665;23;20423;-89
2024/03/07 01:07:29;;;;;;;;;;;;;;;;;;;;;
2024/03/07 01:21:00;;;;;;;28.73;19.33;;;;;;;;;;6198736;23;20465;-89
2024/03/07 01:23:45;;;;;;;29.30;18.57;;;;;;;;;;6190818;23;20400;-88
2024/03/07 01:26:30;;;;;;;29.10;17.97;;;;;;;;;;6187540;23;20444;-89
2024/03/07 01:40:20;;;;;;;27.13;16.50;;;;;;;;;;6105553;23;20397;-88
2024/03/07 01:47:39;;;;;;;27.93;17.00;;;;;;;;;;6057989;23;20449;-89
2024/03/07 01:50:46;;;;;;;28.00;18.10;;;;;;;;;;6024731;23;20460;-88
2024/03/07 01:53:34;;;;;;;27.93;17.20;;;;;;;;;;6028687;23;20413;-88
2024/03/07 01:59:55;;;;;;;24.67;16.73;;;;;;;;;;5995041;24;20371;-88
2024/03/07 02:02:56;;;;;;;25.80;16.00;;;;;;;;;;5894525;24;20403;-89
2024/03/07 02:05:37;;;;;;;31.20;17.10;;;;;;;;;;5964041;24;20776;-88
2024/03/07 02:08:32;;;;;;;25.40;16.90;;;;;;;;;;5967341;24;20481;-91
2024/03/07 02:11:19;;;;;;;24.40;15.37;;;;;;;;;;5976844;23;20409;-90
2024/03/07 02:14:08;;;;;;;23.93;15.07;;;;;;;;;;5999202;23;20414;-90
2024/03/07 02:17:20;;;;;;;22.30;14.77;;;;;;;;;;6055460;23;20423;-88
2024/03/07 02:20:10;;;;;;;22.00;13.90;;;;;;;;;;6046758;23;20395;-88
2024/03/07 02:23:06;;;;;;;22.47;14.40;;;;;;;;;;6047242;23;20413;-89
2024/03/07 02:26:07;;;;;;;26.20;14.27;;;;;;;;;;6051721;23;21211;-90
2024/03/07 02:28:56;;;;;;;26.30;14.87;;;;;;;;;;6041551;23;20386;-90
2024/03/07 02:31:46;;;;;;;24.40;15.33;;;;;;;;;;6047003;23;20403;-87
2024/03/07 02:34:27;;;;;;;26.23;15.17;;;;;;;;;;6037380;23;20414;-87
2024/03/07 02:37:02;;;;;;;27.53;17.07;;;;;;;;;;6024503;23;20430;-88
2024/03/07 02:39:49;;;;;;;22.23;15.33;;;;;;;;;;6046902;23;20394;-89
2024/03/07 02:42:24;;;;;;;27.87;14.53;;;;;;;;;;6045617;23;20512;-90
2024/03/07 02:45:14;;;;;;;26.90;16.10;;;;;;;;;;6044170;23;20438;-89
2024/03/07 02:48:09;;;;;;;24.90;14.80;;;;;;;;;;6042497;23;20473;-88
2024/03/07 02:50:56;;;;;;;25.60;15.30;;;;;;;;;;6048024;23;20497;-86
2024/03/07 02:57:09;;;;;;;24.70;16.10;;;;;;;;;;6027230;23;20397;-88
2024/03/07 03:00:13;;;;;;;23.73;13.30;;;;;;;;;;6040423;23;20840;-86
2024/03/07 03:02:58;;;;;;;26.50;14.93;;;;;;;;;;6057137;23;20403;-91
2024/03/07 03:05:51;;;;;;;22.27;15.30;;;;;;;;;;6142680;23;20471;-91
2024/03/07 03:08:34;;;;;;;22.83;14.53;;;;;;;;;;6188913;23;20453;-90
2024/03/07 03:16:31;;;;;;;22.23;15.43;;;;;;;;;;6149155;23;20459;-90
2024/03/07 03:19:28;;;;;;;21.60;14.77;;;;;;;;;;6178101;23;20406;-89
2024/03/07 03:28:33;;;;;;;27.90;15.43;;;;;;;;;;6166190;23;20457;-88
2024/03/07 03:31:37;;;;;;;25.43;14.93;;;;;;;;;;6141897;23;20391;-88
2024/03/07 03:43:58;;;;;;;;;;;;;;;;;;;;;
2024/03/07 03:46:55;;;;;;;;;;;;;;;;;;;;;
2024/03/07 03:52:36;;;;;;;22.33;15.17;;;;;;;;;;6150841;23;20529;-88
2024/03/07 03:55:31;;;;;;;26.57;16.10;;;;;;;;;;6119160;23;20431;-87
2024/03/07 03:58:23;;;;;;;28.27;15.17;;;;;;;;;;6163517;23;20914;-89
2024/03/07 04:01:03;;;;;;;23.70;15.57;;;;;;;;;;6163045;23;20447;-90
2024/03/07 04:04:25;;;;;;;23.07;13.77;;;;;;;;;;6161065;23;20410;-86
2024/03/07 04:15:41;;;;;;;24.47;14.23;;;;;;;;;;6198262;23;20413;-87
2024/03/07 04:22:18;;;;;;;23.67;14.43;;;;;;;;;;6223372;23;20849;-87
2024/03/07 04:25:07;;;;;;;21.50;13.97;;;;;;;;;;6202344;23;20420;-89
2024/03/07 04:27:39;;;;;;;26.40;16.10;;;;;;;;;;6149690;23;21054;-90
2024/03/07 04:33:18;;;;;;;21.10;13.83;;;;;;;;;;6175798;23;20452;-89
2024/03/07 04:43:00;;;;;;;25.70;14.83;;;;;;;;;;6227761;23;20356;-88
2024/03/07 04:46:08;;;;;;;26.70;15.77;;;;;;;;;;6178896;23;20441;-89
2024/03/07 05:03:36;;;;;;;26.70;15.13;;;;;;;;;;6173663;23;20445;-89
2024/03/07 05:25:48;;;;;;;;;;;;;;;;;;;;;
2024/03/07 05:35:43;;;;;;;24.37;15.37;;;;;;;;;;6116688;23;20465;-87
2024/03/07 06:03:05;;;;;;;22.97;16.10;;;;;;;;;;6204634;23;20392;-91
2024/03/07 06:46:45;;;;;;;27.53;15.97;;;;;;;;;;6106374;23;20443;-88
2024/03/07 06:49:55;;;;;;;25.20;15.80;;;;;;;;;;6110341;23;20787;-87
2024/03/07 06:53:06;;;;;;;26.47;16.57;;;;;;;;;;6067859;23;20494;-89
2024/03/07 06:56:16;;;;;;;22.60;16.10;;;;;;;;;;6085339;23;20444;-88
2024/03/07 06:59:17;;;;;;;;;;;;;;;;;;;;;
2024/03/07 07:10:59;;;;;;;23.47;14.97;;;;;;;;;;6161895;23;20434;-86
2024/03/07 07:14:03;;;;;;;24.50;15.47;;;;;;;;;;6215412;23;20392;-89
2024/03/07 07:42:56;;;;;;;;;;;;;;;;;;;;;
2024/03/07 08:18:36;;;;;;;;;;;;;;;;;;;;;
2024/03/07 08:21:26;;;;;;;22.23;14.60;;;;;;;;;;6119208;23;20481;-90
2024/03/07 08:24:28;;;;;;;22.37;13.50;;;;;;;;;;6126591;23;20406;-89
2024/03/07 08:34:24;;;;;;;18.30;12.70;;;;;;;;;;6110123;23;20924;-86
2024/03/07 08:40:58;;;;;;;18.50;13.40;;;;;;;;;;6018152;23;20400;-87
2024/03/07 08:43:54;;;;;;;19.77;12.67;;;;;;;;;;6005461;23;20430;-89
2024/03/07 08:49:29;;;;;;;18.97;12.53;;;;;;;;;;6132798;23;20463;-88
2024/03/07 09:08:49;;;;;;;15.70;11.20;;;;;;;;;;6138433;23;20444;-90
2024/03/07 09:15:28;;;;;;;16.00;10.90;;;;;;;;;;6080276;23;20504;-89
2024/03/07 09:21:50;;;;;;;17.73;9.50;;;;;;;;;;6078556;23;20410;-88
2024/03/07 09:24:34;;;;;;;13.00;8.67;;;;;;;;;;6122952;23;20430;-90
2024/03/07 09:27:30;;;;;;;19.50;10.90;;;;;;;;;;6145162;23;20451;-91
2024/03/07 09:30:11;;;;;;;14.83;9.03;;;;;;;;;;6121822;23;20423;-89
2024/03/07 09:33:16;;;;;;;16.93;12.10;;;;;;;;;;6114771;23;20725;-90
2024/03/07 09:49:28;;;;;;;10.30;7.90;;;;;;;;;;5884738;22;6109890;-89
2024/03/07 10:00:56;;;;;;;15.00;10.87;;;;;;;;;;6171327;23;20462;-89
2024/03/07 10:03:32;;;;;;;23.10;10.50;;;;;;;;;;6151370;23;20387;-88
2024/03/07 10:06:05;;;;;;;14.80;10.47;;;;;;;;;;6126738;23;20430;-90
2024/03/07 10:08:40;;;;;;;17.20;10.17;;;;;;;;;;6153000;23;20414;-89
2024/03/07 10:11:15;;;;;;;12.43;8.03;;;;;;;;;;6154125;23;20409;-90
2024/03/07 10:13:49;;;;;;;17.77;10.10;;;;;;;;;;6151467;23;20414;-89
2024/03/07 10:16:18;;;;;;;19.30;10.90;;;;;;;;;;6150890;23;20475;-89
2024/03/07 10:18:55;;;;;;;13.93;10.50;;;;;;;;;;6151564;23;20417;-89
2024/03/07 10:21:27;;;;;;;19.30;10.77;;;;;;;;;;6151330;23;20402;-87
2024/03/07 10:24:11;;;;;;;16.80;11.30;;;;;;;;;;6152712;23;20398;-88
2024/03/07 10:27:06;;;;;;;14.77;9.97;;;;;;;;;;4595164;27;15053458;-90
2024/03/07 10:29:42;;;;;;;19.13;11.77;;;;;;;;;;5099190;28;20191;-92
2024/03/07 10:35:03;;;;;;;16.90;11.40;;;;;;;;;;5136454;23;20474;-90
2024/03/07 10:37:37;;;;;;;16.70;11.53;;;;;;;;;;5040348;28;20461;-90
2024/03/07 10:40:15;;;;;;;19.63;11.33;;;;;;;;;;5040869;28;20484;-90
2024/03/07 10:42:51;;;;;;;18.17;10.50;;;;;;;;;;5034655;28;20457;-89
2024/03/07 10:45:23;;;;;;;16.60;10.80;;;;;;;;;;5037801;28;20473;-86
2024/03/07 10:47:58;;;;;;;11.20;9.57;;;;;;;;;;5031295;28;20489;-90
2024/03/07 10:50:52;;;;;;;18.77;11.40;;;;;;;;;;5024377;28;20526;-92
2024/03/07 10:53:30;;;;;;;13.93;10.30;;;;;;;;;;5017892;28;20490;-88
2024/03/07 10:56:14;;;;;;;16.13;11.40;;;;;;;;;;5039201;28;20463;-88
2024/03/07 10:59:20;;;;;;;15.10;10.67;;;;;;;;;;5029992;28;20452;-89
2024/03/07 11:02:00;;;;;;;18.80;11.30;;;;;;;;;;5014032;28;20429;-88
2024/03/07 11:12:10;;;;;;;13.90;9.00;;;;;;;;;;5032444;28;20422;-88
2024/03/07 11:21:45;;;;;;;16.23;10.70;;;;;;;;;;5048802;23;20497;-89
2024/03/07 11:24:34;;;;;;;16.60;11.07;;;;;;;;;;5044529;28;20513;-91
2024/03/07 11:30:06;;;;;;;12.87;10.50;;;;;;;;;;5199911;23;20490;-90
2024/03/07 11:33:20;;;;;;;18.80;10.50;;;;;;;;;;5025598;28;20454;-89
2024/03/07 11:36:09;;;;;;;15.83;10.90;;;;;;;;;;5028331;28;20464;-90
2024/03/07 11:38:55;;;;;;;14.83;10.40;;;;;;;;;;5014267;28;21179;-89
2024/03/07 11:41:53;;;;;;;13.23;11.30;;;;;;;;;;5001697;28;20491;-90
2024/03/07 11:51:33;;;;;;;15.53;11.80;;;;;;;;;;5010713;28;20426;-91
2024/03/07 11:54:30;;;;;;;13.17;10.13;;;;;;;;;;5025658;28;20451;-90
2024/03/07 11:57:37;;;;;;;16.60;11.70;;;;;;;;;;5027521;28;20430;-90
2024/03/07 12:00:53;;;;;;;17.30;10.67;;;;;;;;;;5012859;28;20455;-90
2024/03/07 12:03:52;;;;;;;16.47;11.50;;;;;;;;;;4992350;28;20435;-89
2024/03/07 12:07:19;;;;;;;15.00;10.57;;;;;;;;;;5007990;28;20482;-88
2024/03/07 12:10:36;;;;;;;14.63;10.30;;;;;;;;;;4994906;28;20534;-89
2024/03/07 12:13:28;;;;;;;15.50;10.03;;;;;;;;;;5009290;28;20582;-89
2024/03/07 12:16:36;;;;;;;12.50;9.40;;;;;;;;;;5001545;28;20551;-86
2024/03/07 12:20:02;;;;;;;12.60;9.90;;;;;;;;;;4993760;28;20449;-87
2024/03/07 12:33:02;;;;;;;11.87;9.00;;;;;;;;;;4965487;28;20435;-84
2024/03/07 12:36:34;;;;;;;11.40;7.50;;;;;;;;;;4961553;28;20551;-87
2024/03/07 12:39:33;;;;;;;12.00;7.93;;;;;;;;;;4958750;28;20448;-90
2024/03/07 12:43:00;;;;;;;8.17;6.97;;;;;;;;;;4986995;28;20438;-89
2024/03/07 12:46:17;;;;;;;14.73;7.17;;;;;;;;;;4963819;28;21683;-88
2024/03/07 12:49:29;;;;;;;12.60;7.20;;;;;;;;;;4968497;28;20463;-86
2024/03/07 12:52:38;;;;;;;10.50;7.23;;;;;;;;;;4999916;28;20435;-85
2024/03/07 12:55:41;;;;;;;8.30;6.20;;;;;;;;;;5019051;28;20530;-85
2024/03/07 12:58:36;;;;;;;9.83;7.60;;;;;;;;;;4990456;28;20446;-86
2024/03/07 13:01:21;;;;;;;6.80;5.27;;;;;;;;;;5021021;28;20475;-86
2024/03/07 13:04:25;;;;;;;;;;;;;;;;;;;;;
2024/03/07 13:07:15;;;;;;;10.00;7.30;;;;;;;;;;4995213;28;20475;-86
2024/03/07 13:10:10;;;;;;;11.00;7.20;;;;;;;;;;5018993;28;20466;-88
2024/03/07 13:16:17;;;;;;;10.70;8.07;;;;;;;;;;5009860;28;20457;-88
2024/03/07 13:19:06;;;;;;;6.43;5.40;;;;;;;;;;5024712;28;20455;-88
2024/03/07 13:31:20;;;;;;;13.00;7.17;;;;;;;;;;4995304;28;20479;-86
2024/03/07 13:37:28;;;;;;;11.60;7.20;;;;;;;;;;4994156;28;20427;-92
2024/03/07 13:40:22;;;;;;;9.00;7.20;;;;;;;;;;4987881;28;21018;-87
2024/03/07 13:43:08;;;;;;;11.20;7.33;;;;;;;;;;4977647;28;20474;-86
2024/03/07 13:45:54;;;;;;;8.03;6.50;;;;;;;;;;4974505;28;20492;-88
2024/03/07 13:48:46;;;;;;;9.07;6.90;;;;;;;;;;4978746;28;20446;-89
2024/03/07 13:51:20;;;;;;;7.50;6.60;;;;;;;;;;4986193;28;21000;-85
2024/03/07 13:54:08;;;;;;;9.70;7.73;;;;;;;;;;4975883;28;20460;-85
2024/03/07 13:57:05;;;;;;;11.07;7.30;;;;;;;;;;4994750;28;20448;-89
2024/03/07 14:00:32;;;;;;;11.40;6.97;;;;;;;;;;5004362;28;20546;-89
2024/03/07 14:04:03;;;;;;;10.60;7.30;;;;;;;;;;4973553;28;20447;-86
2024/03/07 14:06:51;;;;;;;9.10;7.03;;;;;;;;;;4975795;28;20496;-86
2024/03/07 14:09:39;;;;;;;9.83;7.17;;;;;;;;;;4989261;28;20496;-86
2024/03/07 14:13:21;;;;;;;11.00;7.20;;;;;;;;;;4985022;28;20491;-88
2024/03/07 14:32:38;;;;;;;10.10;7.70;;;;;;;;;;4980438;28;20498;-87
2024/03/07 14:35:39;;;;;;;7.73;6.93;;;;;;;;;;4991928;28;20479;-89
2024/03/07 14:42:01;;;;;;;9.77;6.40;;;;;;;;;;4965744;28;20456;-88
2024/03/07 14:44:54;;;;;;;10.90;8.57;;;;;;;;;;4975993;28;20488;-87
2024/03/07 14:47:56;;;;;;;11.03;8.20;;;;;;;;;;4968866;28;20914;-88
2024/03/07 14:50:55;;;;;;;9.83;7.77;;;;;;;;;;4962489;28;20444;-86
2024/03/07 14:54:02;;;;;;;10.73;8.07;;;;;;;;;;4976113;28;22371;-89
2024/03/07 14:56:44;;;;;;;;;;;;;;;;;;;;;
2024/03/07 14:59:51;;;;;;;9.90;7.13;;;;;;;;;;4961103;28;20440;-90
2024/03/07 15:03:24;;;;;;;;;;;;;;;;;;;;;
2024/03/07 15:09:42;;;;;;;6.87;4.17;;;;;;;;;;4944243;29;20472;-88
2024/03/07 15:16:08;;;;;;;9.53;6.50;;;;;;;;;;4949443;29;20468;-87
2024/03/07 15:19:26;;;;;;;;;;;;;;;;;;;;;
2024/03/07 15:22:46;;;;;;;8.57;6.20;;;;;;;;;;4898633;29;20437;-89
2024/03/07 15:25:42;;;;;;;7.93;6.10;;;;;;;;;;4898521;29;20536;-88
2024/03/07 15:28:35;;;;;;;8.87;6.87;;;;;;;;;;4906665;29;20402;-85
2024/03/07 15:31:37;;;;;;;6.87;5.60;;;;;;;;;;4918273;29;20532;-90
2024/03/07 15:37:00;;;;;;;10.80;6.60;;;;;;;;;;5199723;23;20479;-89
2024/03/07 15:39:53;;;;;;;8.47;6.90;;;;;;;;;;4990200;28;20490;-88
2024/03/07 15:42:51;;;;;;;11.60;7.30;;;;;;;;;;5011999;28;20459;-88
2024/03/07 15:46:06;;;;;;;9.90;6.77;;;;;;;;;;5001388;28;20498;-87
2024/03/07 15:48:50;;;;;;;8.10;7.30;;;;;;;;;;4987280;28;20465;-89
2024/03/07 15:52:00;;;;;;;;;;;;;;;;;;;;;
2024/03/07 15:55:20;;;;;;;11.43;6.97;;;;;;;;;;4997299;28;20450;-87
2024/03/07 15:58:23;;;;;;;11.27;8.03;;;;;;;;;;4992510;28;20485;-86
2024/03/07 16:01:50;;;;;;;9.50;6.90;;;;;;;;;;5005171;28;20506;-88
2024/03/07 16:04:44;;;;;;;10.30;7.10;;;;;;;;;;5175714;23;22181;-84
2024/03/07 16:07:51;;;;;;;10.83;7.50;;;;;;;;;;4996513;28;20488;-86
2024/03/07 16:10:40;;;;;;;11.47;7.87;;;;;;;;;;4995066;28;20470;-89
2024/03/07 16:13:58;;;;;;;10.77;7.00;;;;;;;;;;5001847;28;20496;-85
2024/03/07 16:16:54;;;;;;;11.40;7.27;;;;;;;;;;5007976;28;20440;-91
2024/03/07 16:19:30;;;;;;;10.43;7.17;;;;;;;;;;5012792;28;20448;-89
2024/03/07 16:22:46;;;;;;;10.47;7.20;;;;;;;;;;5004652;28;20448;-88
2024/03/07 16:31:46;;;;;;;11.50;8.50;;;;;;;;;;5370601;23;20470;-87
2024/03/07 16:42:05;;;;;;;13.47;8.10;;;;;;;;;;4979393;28;20454;-87
2024/03/07 16:48:46;;;;;;;14.60;8.03;;;;;;;;;;4959424;29;20455;-86
2024/03/07 16:52:02;;;;;;;10.20;7.20;;;;;;;;;;5022169;28;20433;-87
2024/03/07 16:58:38;;;;;;;9.23;6.97;;;;;;;;;;4974032;28;20420;-85
2024/03/07 17:01:40;;;;;;;11.00;6.80;;;;;;;;;;4963745;28;20892;-90
2024/03/07 17:07:23;;;;;;;;;;;;;;;;;;;;;
2024/03/07 17:30:24;;;;;;;10.03;7.70;;;;;;;;;;4912322;29;20465;-87
2024/03/07 17:33:35;;;;;;;11.73;7.53;;;;;;;;;;4919252;29;20435;-86
2024/03/07 17:40:15;;;;;;;11.60;7.77;;;;;;;;;;5032750;23;20497;-87
2024/03/07 17:43:28;;;;;;;;;;;;;;;;;;;;;
2024/03/07 17:46:41;;;;;;;13.03;7.50;;;;;;;;;;4951294;28;20488;-87
2024/03/07 17:49:33;;;;;;;8.67;6.83;;;;;;;;;;4920128;29;20445;-87
2024/03/07 17:59:26;;;;;;;10.33;8.00;;;;;;;;;;4927022;29;20413;-89
2024/03/07 18:02:22;;;;;;;12.97;7.67;;;;;;;;;;4921155;29;20461;-86
2024/03/07 18:05:23;;;;;;;12.10;9.57;;;;;;;;;;4922998;29;20614;-87
2024/03/07 18:08:33;;;;;;;13.80;6.00;;;;;;;;;;4921363;29;20453;-88
2024/03/07 18:15:13;;;;;;;;;;;;;;;;;;;;;
2024/03/07 18:18:19;;;;;;;11.27;7.53;;;;;;;;;;4923901;29;20441;-88
2024/03/07 18:21:24;;;;;;;12.57;7.67;;;;;;;;;;4898298;29;20455;-88
2024/03/07 19:29:49;;;;;;;13.33;8.57;;;;;;;;;;1232544;23;20696;-84
2024/03/07 19:36:35;;;;;;;15.13;9.27;;;;;;;;;;4941688;28;20564;-90
2024/03/07 19:43:06;;;;;;;19.97;10.07;;;;;;;;;;4930461;29;20424;-85
2024/03/07 19:48:53;;;;;;;13.83;9.30;;;;;;;;;;5175740;23;20496;-86
2024/03/07 19:51:47;;;;;;;14.30;9.47;;;;;;;;;;4979853;28;20464;-87
2024/03/07 19:54:30;;;;;;;14.57;10.17;;;;;;;;;;4959171;28;20910;-87
2024/03/07 19:57:12;;;;;;;13.33;9.17;;;;;;;;;;4966032;28;20450;-87
2024/03/07 19:59:59;;;;;;;15.10;9.63;;;;;;;;;;4966402;28;20448;-86
2024/03/07 20:02:47;;;;;;;19.00;11.23;;;;;;;;;;4973669;28;20479;-86
2024/03/07 20:05:36;;;;;;;16.63;9.87;;;;;;;;;;4986150;28;20484;-86
2024/03/07 20:11:53;;;;;;;10.40;8.60;;;;;;;;;;4973760;28;20388;-88
2024/03/07 20:14:31;;;;;;;12.27;8.20;;;;;;;;;;4969815;28;20500;-88
2024/03/07 20:17:38;;;;;;;12.33;9.33;;;;;;;;;;4969683;28;21483;-88
2024/03/07 20:20:23;;;;;;;15.50;10.50;;;;;;;;;;4969176;28;20463;-87
2024/03/07 20:23:13;;;;;;;14.43;9.80;;;;;;;;;;4969700;28;20432;-87
2024/03/07 20:26:04;;;;;;;13.90;9.97;;;;;;;;;;4970067;28;20535;-86
2024/03/07 20:28:45;;;;;;;14.87;10.60;;;;;;;;;;4960784;28;20453;-89
2024/03/07 20:31:16;;;;;;;11.60;9.80;;;;;;;;;;4967967;28;20932;-88
2024/03/07 20:33:48;;;;;;;12.53;9.17;;;;;;;;;;4971780;28;20452;-86
2024/03/07 20:36:18;;;;;;;17.00;12.43;;;;;;;;;;4970777;28;20516;-86
2024/03/07 20:38:55;;;;;;;13.47;10.50;;;;;;;;;;4977165;28;20500;-88
2024/03/07 20:41:27;;;;;;;14.63;11.57;;;;;;;;;;4985928;28;20463;-85
2024/03/07 20:47:06;;;;;;;14.23;10.60;;;;;;;;;;5311554;23;20579;-89
2024/03/07 20:50:15;;;;;;;14.40;10.50;;;;;;;;;;4966300;28;20505;-83
2024/03/07 20:53:29;;;;;;;14.13;10.93;;;;;;;;;;4970194;28;20452;-86
2024/03/07 20:56:16;;;;;;;15.47;11.23;;;;;;;;;;4968176;28;20531;-88
2024/03/07 20:59:06;;;;;;;15.27;11.30;;;;;;;;;;4971009;28;20451;-87
2024/03/07 21:02:13;;;;;;;13.33;10.93;;;;;;;;;;4968499;28;20927;-87
2024/03/07 21:05:00;;;;;;;13.97;11.80;;;;;;;;;;4966755;28;20480;-86
2024/03/07 21:07:52;;;;;;;14.00;10.53;;;;;;;;;;4969941;28;20495;-87
2024/03/07 21:10:38;;;;;;;18.50;11.70;;;;;;;;;;4966892;28;20483;-85
2024/03/07 21:13:11;;;;;;;15.00;12.70;;;;;;;;;;4969005;28;20479;-89
2024/03/07 21:15:57;;;;;;;13.93;10.80;;;;;;;;;;4963896;28;20483;-87
2024/03/07 21:18:41;;;;;;;15.53;11.40;;;;;;;;;;4963495;28;21039;-86
2024/03/07 21:21:26;;;;;;;15.47;10.20;;;;;;;;;;4961507;28;20521;-86
2024/03/07 21:44:26;;;;;;;21.33;12.47;;;;;;;;;;4941124;29;20536;-85
2024/03/07 21:47:21;;;;;;;17.87;12.87;;;;;;;;;;4941874;29;20867;-86
2024/03/07 21:49:58;;;;;;;14.70;12.17;;;;;;;;;;4945009;29;20999;-88
2024/03/07 21:52:33;;;;;;;14.80;12.20;;;;;;;;;;4942672;29;20469;-85
2024/03/07 21:55:07;;;;;;;14.77;11.83;;;;;;;;;;4943747;29;20464;-85
2024/03/07 21:57:43;;;;;;;18.40;12.67;;;;;;;;;;4943885;29;20804;-87
2024/03/07 22:00:24;;;;;;;16.33;12.47;;;;;;;;;;4936909;29;20511;-86
2024/03/07 22:03:09;;;;;;;18.40;12.73;;;;;;;;;;4939570;29;20549;-86
2024/03/07 22:05:43;;;;;;;17.73;11.70;;;;;;;;;;4938732;29;20735;-86
2024/03/07 22:08:35;;;;;;;16.00;12.20;;;;;;;;;;4952753;29;20557;-85
2024/03/07 22:11:14;;;;;;;16.17;12.07;;;;;;;;;;4956439;29;20525;-87
2024/03/07 22:14:10;;;;;;;15.37;12.00;;;;;;;;;;4951588;29;21153;-87
2024/03/07 22:17:04;;;;;;;17.27;12.13;;;;;;;;;;4954110;29;20433;-91
2024/03/07 22:19:45;;;;;;;16.67;11.07;;;;;;;;;;4967310;28;20449;-87
2024/03/07 22:22:34;;;;;;;15.93;12.47;;;;;;;;;;4941025;29;20833;-87
2024/03/07 22:25:15;;;;;;;17.37;11.43;;;;;;;;;;4915603;29;20553;-87
2024/03/07 22:27:49;;;;;;;16.43;12.70;;;;;;;;;;4949779;29;20461;-88
2024/03/07 22:30:41;;;;;;;15.20;12.43;;;;;;;;;;4951992;29;20477;-87
2024/03/07 22:33:17;;;;;;;20.97;12.90;;;;;;;;;;4961763;28;20446;-88
2024/03/07 22:35:47;;;;;;;14.77;11.20;;;;;;;;;;4960155;28;20517;-89
2024/03/07 22:43:43;;;;;;;15.60;10.93;;;;;;;;;;4955026;28;20581;-90
2024/03/07 22:46:20;;;;;;;15.63;11.93;;;;;;;;;;4941102;28;20474;-89
2024/03/07 22:51:38;;;;;;;16.37;12.20;;;;;;;;;;5220888;23;20519;-90
2024/03/07 22:54:15;;;;;;;19.13;12.60;;;;;;;;;;5003940;28;20436;-91
2024/03/07 22:59:25;;;;;;;14.00;11.67;;;;;;;;;;5028689;23;20538;-90
2024/03/07 23:01:54;;;;;;;15.83;12.70;;;;;;;;;;4998669;28;20464;-90
2024/03/07 23:07:24;;;;;;;20.47;13.50;;;;;;;;;;5617963;23;20546;-90
2024/03/07 23:09:52;;;;;;;17.67;12.60;;;;;;;;;;4998213;28;20455;-88
2024/03/07 23:12:29;;;;;;;14.17;11.63;;;;;;;;;;5042539;23;20516;-90
2024/03/07 23:15:30;;;;;;;16.97;12.90;;;;;;;;;;4972852;28;20513;-90
2024/03/07 23:18:31;;;;;;;;;;;;;;;;;;;;;
2024/03/07 23:21:13;;;;;;;17.07;12.33;;;;;;;;;;4946812;29;20453;-85
2024/03/07 23:23:49;;;;;;;18.70;12.17;;;;;;;;;;4959911;28;20513;-85
2024/03/07 23:26:19;;;;;;;17.77;12.80;;;;;;;;;;4948097;29;20493;-86
2024/03/07 23:28:53;;;;;;;15.50;12.60;;;;;;;;;;4967718;28;20462;-89
2024/03/07 23:31:32;;;;;;;18.47;14.37;;;;;;;;;;5156530;23;20555;-87
2024/03/07 23:34:12;;;;;;;16.40;12.37;;;;;;;;;;4964145;28;20481;-89
2024/03/07 23:37:01;;;;;;;18.37;12.90;;;;;;;;;;4932217;29;20447;-86
2024/03/07 23:39:45;;;;;;;17.97;12.13;;;;;;;;;;4933483;29;20458;-86
2024/03/07 23:42:22;;;;;;;17.67;11.87;;;;;;;;;;4931367;29;20490;-86
2024/03/07 23:44:57;;;;;;;16.13;12.67;;;;;;;;;;4926965;29;20593;-86
2024/03/07 23:47:33;;;;;;;15.47;11.83;;;;;;;;;;4931060;29;20516;-85
2024/03/07 23:50:04;;;;;;;18.40;12.87;;;;;;;;;;4949355;29;20454;-88
2024/03/07 23:52:45;;;;;;;13.57;10.80;;;;;;;;;;5158650;23;20488;-87
2024/03/07 23:59:05;;;;;;;12.40;9.10;;;;;;;;;;4977755;28;20424;-90
